Time;durP1;ratioP1;P1;durP2;ratioP2;P2;SDS_P1;SDS_P2;PMS_P1;PMS_P2;Temp;Humidity;BMP_temperature;BMP_pressure;BME280_temperature;BME280_humidity;BME280_pressure;Samples;Min_cycle;Max_cycle;Signal;HPM_P1;HPM_P2
2021/12/15 00:01:44;;;;;;;28.25;17.10;;;;;;;7.91;100.00;101924.97;5048310;28;20943;-58
2021/12/15 00:04:09;;;;;;;19.92;17.15;;;;;;;7.86;100.00;101918.09;5048203;28;20043;-58
2021/12/15 00:06:35;;;;;;;21.30;17.42;;;;;;;7.81;100.00;101920.78;5048338;28;20024;-58
2021/12/15 00:09:05;;;;;;;26.23;19.40;;;;;;;7.74;100.00;101923.53;5048937;28;20028;-58
2021/12/15 00:11:36;;;;;;;28.25;20.63;;;;;;;7.68;100.00;101921.84;5048469;28;20847;-58
2021/12/15 00:14:06;;;;;;;27.92;19.52;;;;;;;7.64;100.00;101920.13;5047981;28;20521;-58
2021/12/15 00:16:32;;;;;;;29.75;20.38;;;;;;;7.46;100.00;101889.91;5048701;28;20042;-58
2021/12/15 00:18:58;;;;;;;31.70;19.83;;;;;;;7.57;100.00;101908.91;5046495;28;20814;-58
2021/12/15 00:21:23;;;;;;;25.88;19.10;;;;;;;7.48;100.00;101895.94;5047828;28;20040;-58
2021/12/15 00:23:49;;;;;;;28.95;21.35;;;;;;;7.55;100.00;101920.28;5047783;28;20201;-58
2021/12/15 00:26:15;;;;;;;28.48;21.65;;;;;;;7.52;100.00;101909.84;5048539;28;20881;-58
2021/12/15 00:28:42;;;;;;;27.83;20.60;;;;;;;7.50;100.00;101915.09;5047433;28;20024;-58
2021/12/15 00:31:08;;;;;;;33.63;23.48;;;;;;;7.25;100.00;101868.38;5049400;28;20910;-58
2021/12/15 00:33:35;;;;;;;26.80;20.15;;;;;;;7.46;100.00;101908.19;5048251;28;20024;-58
2021/12/15 00:36:00;;;;;;;29.55;21.52;;;;;;;7.49;100.00;101909.91;5047849;28;20131;-58
2021/12/15 00:38:26;;;;;;;37.65;23.98;;;;;;;7.48;100.00;101916.00;5047760;28;20024;-58
2021/12/15 00:40:51;;;;;;;27.50;22.52;;;;;;;7.44;100.00;101916.94;5047861;28;20028;-58
2021/12/15 00:43:17;;;;;;;34.13;22.95;;;;;;;7.47;100.00;101922.16;5047489;28;20016;-57
2021/12/15 00:45:43;;;;;;;31.00;22.58;;;;;;;7.48;100.00;101923.84;5047885;28;20931;-57
2021/12/15 00:48:09;;;;;;;29.63;21.92;;;;;;;7.48;100.00;101914.25;5047144;28;20028;-57
2021/12/15 00:50:35;;;;;;;31.67;22.88;;;;;;;7.48;100.00;101916.00;5048016;28;20028;-57
2021/12/15 00:53:01;;;;;;;32.03;22.63;;;;;;;7.46;100.00;101917.78;5048183;28;20036;-57
2021/12/15 00:55:27;;;;;;;31.48;22.55;;;;;;;7.35;100.00;101896.13;5047887;28;20028;-58
2021/12/15 00:57:53;;;;;;;43.10;26.08;;;;;;;7.46;100.00;101916.03;5047693;28;20026;-57
2021/12/15 01:00:25;;;;;;;49.28;28.67;;;;;;;7.47;100.00;101917.75;5046003;28;20028;-58
2021/12/15 01:02:52;;;;;;;38.85;24.40;;;;;;;7.46;100.00;101910.81;5047431;28;20148;-57
2021/12/15 01:05:20;;;;;;;36.50;26.90;;;;;;;7.47;100.00;101914.31;5047779;28;20070;-57
2021/12/15 01:07:47;;;;;;;42.80;29.00;;;;;;;7.47;100.00;101912.53;5045897;28;20853;-57
2021/12/15 01:10:20;;;;;;;42.15;27.38;;;;;;;7.47;100.00;101911.69;5047278;28;20303;-57
2021/12/15 01:14:32;;;;;;;40.80;27.33;;;;;;;7.46;100.00;101918.66;5047412;28;20131;-57
2021/12/15 01:21:12;;;;;;;38.92;28.73;;;;;;;7.45;100.00;101914.31;5046204;28;20054;-57
2021/12/15 01:23:39;;;;;;;43.08;26.15;;;;;;;7.47;100.00;101922.16;5046502;28;20020;-57
2021/12/15 01:26:14;;;;;;;52.35;27.40;;;;;;;7.47;100.00;101924.75;5047254;28;20135;-59
2021/12/15 01:28:39;;;;;;;37.55;27.75;;;;;;;7.48;100.00;101923.84;5047142;28;20058;-58
2021/12/15 01:31:06;;;;;;;47.00;29.05;;;;;;;7.37;100.00;101910.06;5047327;28;20032;-57
2021/12/15 01:33:33;;;;;;;43.67;29.77;;;;;;;7.48;100.00;101923.84;5047078;28;20218;-58
2021/12/15 01:35:59;;;;;;;42.03;27.30;;;;;;;7.45;100.00;101918.66;5047084;28;20081;-58
2021/12/15 01:38:27;;;;;;;33.08;27.33;;;;;;;7.47;100.00;101925.59;5047243;28;20143;-58
2021/12/15 01:40:53;;;;;;;43.10;26.95;;;;;;;7.47;100.00;101919.53;5047076;28;20020;-58
2021/12/15 01:43:34;;;;;;;45.60;29.02;;;;;;;7.46;100.00;101926.50;5046916;28;20820;-58
2021/12/15 01:48:57;;;;;;;39.90;27.05;;;;;;;7.46;100.00;101925.63;5046759;28;20059;-58
2021/12/15 01:51:23;;;;;;;40.78;27.80;;;;;;;7.30;100.00;101908.41;5048622;28;20316;-57
2021/12/15 01:53:49;;;;;;;47.08;29.08;;;;;;;7.44;100.00;101930.00;5047692;28;20818;-58
2021/12/15 01:56:14;;;;;;;44.40;28.15;;;;;;;7.44;100.00;101932.63;5046027;28;21014;-58
2021/12/15 01:58:39;;;;;;;46.53;29.80;;;;;;;7.43;100.00;101925.69;5046874;28;20048;-58
2021/12/15 02:01:07;;;;;;;34.22;26.58;;;;;;;7.44;100.00;101928.25;5046791;28;20138;-58
2021/12/15 02:03:33;;;;;;;46.33;26.48;;;;;;;7.44;100.00;101935.22;5045654;28;20222;-58
2021/12/15 02:05:59;;;;;;;35.97;28.25;;;;;;;7.39;100.00;101923.97;5046695;28;20056;-58
2021/12/15 02:08:25;;;;;;;38.40;26.45;;;;;;;7.45;100.00;101939.59;5045201;28;20038;-58
2021/12/15 02:10:51;;;;;;;40.13;27.67;;;;;;;7.45;100.00;101931.75;5045152;28;20886;-58
2021/12/15 02:13:18;;;;;;;34.42;26.33;;;;;;;7.45;100.00;101929.13;5045448;28;20031;-59
2021/12/15 02:15:50;;;;;;;32.25;25.27;;;;;;;7.44;100.00;101930.88;5046947;28;20136;-58
2021/12/15 02:18:19;;;;;;;36.58;26.50;;;;;;;7.43;100.00;101930.91;5046524;28;20156;-58
2021/12/15 02:20:51;;;;;;;38.50;24.20;;;;;;;7.12;100.00;101878.13;5046542;28;20039;-58
2021/12/15 02:23:20;;;;;;;35.10;24.38;;;;;;;7.00;100.00;101863.44;5046138;28;20024;-57
2021/12/15 02:25:45;;;;;;;34.63;24.95;;;;;;;7.42;100.00;101934.41;5046153;28;20028;-57
2021/12/15 02:28:11;;;;;;;32.13;23.88;;;;;;;7.41;100.00;101932.66;5045611;28;20118;-58
2021/12/15 02:38:34;;;;;;;31.23;23.92;;;;;;;7.40;100.00;101931.78;5048926;28;20047;-58
2021/12/15 02:41:08;;;;;;;29.63;22.40;;;;;;;6.81;100.00;101834.94;5049959;28;20028;-58
2021/12/15 02:43:34;;;;;;;37.85;22.67;;;;;;;7.40;100.00;101938.78;5049775;28;20066;-57
2021/12/15 02:45:59;;;;;;;30.88;24.38;;;;;;;7.40;100.00;101936.19;5049240;28;20036;-57
2021/12/15 02:48:25;;;;;;;34.00;23.67;;;;;;;7.41;100.00;101948.34;5050105;28;20027;-57
2021/12/15 02:50:50;;;;;;;33.75;24.42;;;;;;;7.40;100.00;101944.03;5048299;28;20025;-57
2021/12/15 02:53:17;;;;;;;35.17;24.60;;;;;;;7.11;100.00;101898.16;5048689;28;20042;-57
2021/12/15 02:55:43;;;;;;;30.90;23.48;;;;;;;7.17;100.00;101911.16;5050159;28;20028;-57
2021/12/15 02:58:08;;;;;;;36.28;22.67;;;;;;;7.39;100.00;101937.06;5048840;28;20554;-57
2021/12/15 03:00:53;;;;;;;28.35;22.63;;;;;;;7.41;100.00;101930.03;5049808;28;20035;-57
2021/12/15 03:06:18;;;;;;;36.05;21.98;;;;;;;6.97;100.00;101863.50;5041266;28;20048;-58
2021/12/15 03:08:57;;;;;;;27.98;20.98;;;;;;;7.40;100.00;101931.78;5048060;28;20036;-58
2021/12/15 03:16:54;;;;;;;33.10;22.98;;;;;;;7.38;100.00;101937.94;5048692;28;20988;-57
2021/12/15 03:19:20;;;;;;;25.85;20.10;;;;;;;7.38;100.00;101933.56;5048300;28;20028;-58
2021/12/15 03:21:45;;;;;;;27.77;19.67;;;;;;;7.17;100.00;101890.25;5049421;28;20849;-57
2021/12/15 03:24:17;;;;;;;27.33;19.85;;;;;;;7.40;100.00;101930.94;5049505;28;20031;-58
2021/12/15 03:26:52;;;;;;;30.88;20.85;;;;;;;7.41;100.00;101920.44;5049743;28;20036;-58
2021/12/15 03:35:05;;;;;;;24.20;19.40;;;;;;;7.41;100.00;101930.03;5048306;28;20043;-58
2021/12/15 03:37:35;;;;;;;30.25;18.63;;;;;;;7.41;100.00;101922.19;5049508;28;20058;-58
2021/12/15 03:40:07;;;;;;;28.60;19.98;;;;;;;7.39;100.00;101918.75;5049459;28;20064;-58
2021/12/15 03:42:36;;;;;;;24.85;19.77;;;;;;;7.38;100.00;101927.47;5049009;28;20028;-58
2021/12/15 03:45:09;;;;;;;31.02;21.88;;;;;;;7.38;100.00;101932.69;5047780;28;20028;-58
2021/12/15 03:47:37;;;;;;;35.40;20.80;;;;;;;7.38;100.00;101932.69;5048678;28;20126;-58
2021/12/15 03:50:06;;;;;;;29.80;22.75;;;;;;;7.38;100.00;101937.94;5047506;28;20071;-58
2021/12/15 03:52:31;;;;;;;31.65;23.48;;;;;;;7.36;100.00;101943.19;5047410;28;20828;-57
2021/12/15 03:54:57;;;;;;;32.97;23.75;;;;;;;7.38;100.00;101948.38;5049066;28;20097;-58
2021/12/15 03:57:22;;;;;;;36.95;24.27;;;;;;;7.38;100.00;101945.78;5048029;28;20142;-57
2021/12/15 03:59:48;;;;;;;43.20;24.90;;;;;;;7.39;100.00;101951.00;5048630;28;20023;-57
2021/12/15 04:02:16;;;;;;;29.20;21.48;;;;;;;7.39;100.00;101960.59;5046913;28;20926;-58
2021/12/15 04:04:42;;;;;;;39.78;24.67;;;;;;;7.25;100.00;101937.22;5048608;28;20105;-58
2021/12/15 04:07:08;;;;;;;35.63;24.75;;;;;;;7.17;100.00;101918.13;5047730;28;20040;-58
2021/12/15 04:09:34;;;;;;;27.52;22.23;;;;;;;7.37;100.00;101952.75;5047767;28;20024;-57
2021/12/15 04:12:00;;;;;;;38.30;25.23;;;;;;;7.36;100.00;101951.03;5048242;28;20055;-57
2021/12/15 04:14:31;;;;;;;29.15;23.38;;;;;;;7.37;100.00;101951.91;5048365;28;20028;-57
2021/12/15 04:17:39;;;;;;;33.75;24.42;;;;;;;7.36;100.00;101956.25;5048337;28;20266;-57
2021/12/15 04:19:45;;;;;;;32.05;25.40;;;;;;;7.36;100.00;101960.63;5039342;28;20836;-57
2021/12/15 04:22:11;;;;;;;37.90;25.13;;;;;;;7.36;100.00;101950.16;5048382;28;20034;-57
2021/12/15 04:24:36;;;;;;;34.13;24.70;;;;;;;7.35;100.00;101953.66;5048404;28;20024;-57
2021/12/15 04:27:02;;;;;;;36.42;24.05;;;;;;;7.36;100.00;101958.00;5031711;28;20028;-57
2021/12/15 04:29:29;;;;;;;32.88;22.33;;;;;;;7.34;100.00;101942.31;5048448;28;20027;-57
2021/12/15 04:32:22;;;;;;;31.58;21.63;;;;;;;7.35;100.00;101959.75;5047923;28;20034;-57
2021/12/15 04:34:47;;;;;;;34.53;23.98;;;;;;;7.34;100.00;101949.28;5038448;28;20410;-57
2021/12/15 04:37:13;;;;;;;27.27;22.27;;;;;;;7.22;100.00;101936.38;5048289;28;20069;-58
2021/12/15 04:39:38;;;;;;;35.72;24.73;;;;;;;7.15;100.00;101936.47;5048150;28;20031;-58
2021/12/15 04:42:05;;;;;;;32.85;23.40;;;;;;;7.33;100.00;101977.22;5046565;28;20965;-57
2021/12/15 04:44:34;;;;;;;39.17;25.77;;;;;;;7.35;100.00;101969.34;5046450;28;20028;-57
2021/12/15 04:47:07;;;;;;;32.67;24.13;;;;;;;7.35;100.00;101967.59;5046212;28;20175;-57
2021/12/15 04:49:39;;;;;;;30.15;23.85;;;;;;;7.34;100.00;101970.22;5046501;28;20024;-57
2021/12/15 04:52:09;;;;;;;34.08;22.20;;;;;;;7.36;100.00;101963.25;5047132;28;20039;-57
2021/12/15 04:54:34;;;;;;;39.05;21.48;;;;;;;7.34;100.00;101958.00;5047782;28;20058;-57
2021/12/15 04:57:01;;;;;;;29.33;21.20;;;;;;;7.36;100.00;101971.09;5045646;28;20032;-57
2021/12/15 04:59:27;;;;;;;29.85;21.33;;;;;;;7.34;100.00;101967.59;5047160;28;20028;-57
2021/12/15 05:01:52;;;;;;;26.38;19.55;;;;;;;7.35;100.00;101969.34;5028279;28;20758;-57
2021/12/15 05:04:18;;;;;;;24.40;19.95;;;;;;;7.25;100.00;101958.13;5047232;28;20034;-57
2021/12/15 05:06:43;;;;;;;30.17;20.00;;;;;;;7.34;100.00;101962.38;5046012;28;20042;-57
2021/12/15 05:09:09;;;;;;;33.08;23.85;;;;;;;7.35;100.00;101972.81;5046794;28;20873;-57
2021/12/15 05:11:35;;;;;;;29.00;21.35;;;;;;;7.33;100.00;101971.13;5047556;28;20056;-57
2021/12/15 05:14:00;;;;;;;33.53;23.88;;;;;;;7.35;100.00;101974.56;5048253;28;20035;-57
2021/12/15 05:16:26;;;;;;;32.30;22.55;;;;;;;7.37;100.00;101983.28;5047655;28;20031;-57
2021/12/15 05:18:52;;;;;;;30.00;22.40;;;;;;;7.32;100.00;101978.09;5047016;28;20024;-57
2021/12/15 05:21:17;;;;;;;31.65;21.90;;;;;;;7.37;100.00;101983.28;5047313;28;20035;-57
2021/12/15 05:23:45;;;;;;;29.15;21.08;;;;;;;7.37;100.00;101980.66;5047189;28;20086;-58
2021/12/15 05:26:11;;;;;;;32.40;20.75;;;;;;;7.36;100.00;101981.53;5047831;28;20053;-57
2021/12/15 05:28:37;;;;;;;30.23;21.95;;;;;;;7.34;100.00;101984.16;5047191;28;20028;-58
2021/12/15 05:31:02;;;;;;;26.55;19.23;;;;;;;7.35;100.00;101985.91;5045623;28;20039;-57
2021/12/15 05:33:28;;;;;;;24.67;21.05;;;;;;;7.35;100.00;101990.25;5045668;28;20884;-57
2021/12/15 05:35:56;;;;;;;27.88;19.38;;;;;;;7.34;100.00;101989.38;5047242;28;20024;-57
2021/12/15 05:38:22;;;;;;;24.98;19.17;;;;;;;7.35;100.00;101987.66;5047371;28;20023;-57
2021/12/15 05:40:49;;;;;;;27.10;19.73;;;;;;;7.34;100.00;101983.28;5046929;28;20035;-57
2021/12/15 05:43:14;;;;;;;30.35;21.25;;;;;;;7.34;100.00;101991.13;5047927;28;20016;-57
2021/12/15 05:45:40;;;;;;;28.63;20.20;;;;;;;7.34;100.00;101988.53;5045846;28;20985;-57
2021/12/15 05:48:08;;;;;;;30.38;20.83;;;;;;;7.34;100.00;101984.16;5029121;28;20051;-58
2021/12/15 05:50:34;;;;;;;42.22;19.65;;;;;;;7.34;100.00;101993.75;5046513;28;20036;-57
2021/12/15 05:53:01;;;;;;;24.55;20.77;;;;;;;7.36;100.00;101999.84;5045515;28;20081;-57
2021/12/15 05:55:27;;;;;;;33.42;22.85;;;;;;;7.36;100.00;101997.22;5046727;28;20026;-57
2021/12/15 05:57:52;;;;;;;27.73;21.90;;;;;;;7.36;100.00;101999.84;5053931;28;20027;-57
2021/12/15 06:00:23;;;;;;;32.38;22.95;;;;;;;7.36;100.00;102002.47;5057750;28;20028;-57
2021/12/15 06:02:49;;;;;;;34.67;23.15;;;;;;;6.83;100.00;101916.75;5065621;28;20028;-57
2021/12/15 06:05:14;;;;;;;25.38;20.23;;;;;;;7.36;100.00;102008.56;5065217;28;20899;-57
2021/12/15 06:07:40;;;;;;;33.50;22.42;;;;;;;7.36;100.00;102007.69;5067179;28;20039;-57
2021/12/15 06:10:07;;;;;;;34.90;24.42;;;;;;;7.36;100.00;102002.47;5069503;28;20034;-57
2021/12/15 06:12:33;;;;;;;29.38;23.33;;;;;;;7.36;100.00;102002.47;5070920;28;20023;-57
2021/12/15 06:14:58;;;;;;;34.17;23.58;;;;;;;7.15;100.00;101969.56;5069479;28;20023;-57
2021/12/15 06:17:26;;;;;;;28.25;22.50;;;;;;;7.19;100.00;101974.75;5072288;28;20028;-57
2021/12/15 06:19:53;;;;;;;28.35;22.88;;;;;;;7.38;100.00;102000.69;5071603;28;20069;-57
2021/12/15 06:22:24;;;;;;;28.73;23.15;;;;;;;7.38;100.00;102000.69;5072801;28;20107;-57
2021/12/15 06:24:51;;;;;;;29.45;24.05;;;;;;;7.39;100.00;102005.03;5072037;28;20035;-57
2021/12/15 06:27:19;;;;;;;37.85;23.65;;;;;;;7.39;100.00;102005.03;5070953;28;20034;-57
2021/12/15 06:29:45;;;;;;;30.00;23.92;;;;;;;6.85;100.00;101921.13;5069255;28;20047;-57
2021/12/15 06:32:10;;;;;;;31.50;24.42;;;;;;;7.16;100.00;101974.75;5069316;28;20028;-57
2021/12/15 06:34:36;;;;;;;31.52;23.75;;;;;;;7.39;100.00;102007.66;5070185;28;20051;-57
2021/12/15 06:37:02;;;;;;;36.40;24.38;;;;;;;7.38;100.00;102005.91;5069001;28;20062;-57
2021/12/15 06:39:27;;;;;;;40.50;24.40;;;;;;;7.29;100.00;101985.09;5069324;28;20470;-57
2021/12/15 06:41:52;;;;;;;32.33;22.42;;;;;;;7.39;100.00;102008.53;5069104;28;20849;-57
2021/12/15 06:44:18;;;;;;;32.83;25.13;;;;;;;7.39;100.00;102005.03;5070591;28;20500;-57
2021/12/15 06:58:10;;;;;;;31.42;18.88;;;;;;;7.24;100.00;101981.66;5069553;28;20050;-57
2021/12/15 07:00:16;;;;;;;31.83;21.25;;;;;;;7.43;100.00;102019.81;5069787;28;20857;-57
2021/12/15 07:02:42;;;;;;;29.98;21.63;;;;;;;7.43;100.00;102022.44;5070499;28;20028;-58
2021/12/15 07:05:10;;;;;;;29.27;21.10;;;;;;;7.42;100.00;102024.16;5070420;28;20089;-58
2021/12/15 07:07:36;;;;;;;28.27;20.83;;;;;;;7.42;100.00;102024.16;5069394;28;20146;-57
2021/12/15 07:10:04;;;;;;;29.30;20.77;;;;;;;7.43;100.00;102027.66;5069143;28;20128;-58
2021/12/15 07:12:29;;;;;;;32.50;21.58;;;;;;;7.43;100.00;102027.66;5068688;28;20024;-58
2021/12/15 07:14:54;;;;;;;30.08;21.60;;;;;;;7.28;100.00;102006.91;5049935;28;20185;-57
2021/12/15 07:17:23;;;;;;;29.58;21.15;;;;;;;7.43;100.00;102030.28;5047479;28;20874;-57
2021/12/15 07:20:28;;;;;;;29.25;20.20;;;;;;;7.44;100.00;102034.59;5047829;28;20036;-58
2021/12/15 07:22:45;;;;;;;30.70;21.92;;;;;;;7.43;100.00;102032.88;5044709;28;20040;-57
2021/12/15 07:25:12;;;;;;;26.05;21.40;;;;;;;7.45;100.00;102038.97;5046355;28;20032;-57
2021/12/15 07:27:38;;;;;;;29.88;24.23;;;;;;;7.45;100.00;102045.06;5048707;28;20024;-57
2021/12/15 07:30:05;;;;;;;29.63;23.73;;;;;;;7.46;100.00;102040.69;5049370;28;20991;-57
2021/12/15 07:32:31;;;;;;;31.70;23.45;;;;;;;7.45;100.00;102038.97;5048845;28;20031;-57
2021/12/15 07:34:56;;;;;;;31.65;24.80;;;;;;;7.46;100.00;102045.94;5052019;28;20083;-58
2021/12/15 07:37:21;;;;;;;31.67;25.08;;;;;;;7.48;100.00;102052.88;5057912;28;20028;-58
2021/12/15 07:39:57;;;;;;;31.75;23.40;;;;;;;7.48;100.00;102046.75;5046240;28;20035;-58
2021/12/15 07:42:31;;;;;;;32.63;23.35;;;;;;;7.51;100.00;102050.22;5047216;28;20048;-57
2021/12/15 07:44:56;;;;;;;;;;;;;;;7.51;100.00;102054.56;5046988;28;20032;-58
2021/12/15 07:47:22;;;;;;;28.43;22.63;;;;;;;7.51;100.00;102060.69;5046718;28;20858;-57
2021/12/15 07:49:47;;;;;;;35.70;22.65;;;;;;;7.51;100.00;102055.44;5048523;28;21259;-57
2021/12/15 07:52:13;;;;;;;39.00;22.92;;;;;;;7.54;100.00;102059.78;5047486;28;20920;-57
2021/12/15 07:54:38;;;;;;;34.65;24.58;;;;;;;7.54;100.00;102059.78;5051211;28;20024;-57
2021/12/15 07:57:10;;;;;;;39.08;23.25;;;;;;;7.55;100.00;102069.34;5060536;28;20816;-57
2021/12/15 07:59:36;;;;;;;40.03;24.25;;;;;;;7.55;100.00;102065.00;5059150;28;20027;-57
2021/12/15 08:02:02;;;;;;;33.30;23.02;;;;;;;7.35;100.00;102026.88;5056658;28;20950;-57
2021/12/15 08:04:28;;;;;;;28.73;23.60;;;;;;;7.32;100.00;102021.66;5052241;28;20556;-57
2021/12/15 08:06:53;;;;;;;33.08;24.02;;;;;;;7.58;100.00;102058.84;5047753;28;20024;-57
2021/12/15 08:09:20;;;;;;;32.40;22.95;;;;;;;7.59;100.00;102056.25;5047147;28;20020;-57
2021/12/15 08:11:46;;;;;;;38.65;24.15;;;;;;;7.29;100.00;102016.47;5062310;28;20027;-57
2021/12/15 08:14:11;;;;;;;31.50;23.48;;;;;;;7.57;100.00;102057.16;5065631;28;20075;-58
2021/12/15 08:16:37;;;;;;;30.20;21.80;;;;;;;7.60;100.00;102060.56;5066803;28;20870;-57
2021/12/15 08:19:02;;;;;;;32.92;22.70;;;;;;;7.58;100.00;102062.34;5068012;28;20027;-57
2021/12/15 08:21:28;;;;;;;32.33;21.67;;;;;;;7.63;100.00;102064.91;5067173;28;20050;-56
2021/12/15 08:23:54;;;;;;;33.70;23.80;;;;;;;7.62;100.00;102063.19;5067221;28;20019;-57
2021/12/15 08:26:20;;;;;;;29.80;22.00;;;;;;;7.63;100.00;102070.16;5067262;28;20054;-57
2021/12/15 08:28:45;;;;;;;37.00;23.00;;;;;;;7.64;100.00;102067.50;5067830;28;20892;-56
2021/12/15 08:31:10;;;;;;;31.92;22.50;;;;;;;7.65;100.00;102073.59;5068195;28;20134;-56
2021/12/15 08:33:36;;;;;;;32.83;22.30;;;;;;;7.66;100.00;102076.22;5050881;28;20084;-56
2021/12/15 08:36:08;;;;;;;31.00;23.13;;;;;;;7.69;100.00;102075.31;5067023;28;20938;-57
2021/12/15 08:38:37;;;;;;;29.20;23.33;;;;;;;7.70;100.00;102084.91;5068374;28;20031;-57
2021/12/15 08:41:06;;;;;;;33.95;23.38;;;;;;;7.68;100.00;102084.03;5066450;28;20047;-57
2021/12/15 08:43:32;;;;;;;28.10;22.38;;;;;;;7.70;100.00;102083.13;5067682;28;20077;-56
2021/12/15 08:46:03;;;;;;;34.05;23.75;;;;;;;7.73;100.00;102079.63;5067957;28;20053;-56
2021/12/15 08:48:30;;;;;;;33.33;22.55;;;;;;;7.75;100.00;102077.84;5068113;28;20167;-56
2021/12/15 08:50:55;;;;;;;30.55;23.40;;;;;;;7.75;100.00;102077.84;5048900;28;20122;-57
2021/12/15 08:53:23;;;;;;;33.75;23.15;;;;;;;7.77;100.00;102086.56;5068123;28;20081;-57
2021/12/15 08:55:49;;;;;;;32.55;21.73;;;;;;;7.78;100.00;102084.78;5068654;28;20028;-58
2021/12/15 08:58:16;;;;;;;34.72;21.67;;;;;;;7.81;100.00;102079.53;5066980;28;20023;-57
2021/12/15 09:00:43;;;;;;;25.30;20.80;;;;;;;7.83;100.00;102078.63;5068286;28;20032;-58
2021/12/15 09:03:10;;;;;;;37.03;23.98;;;;;;;7.82;100.00;102079.50;5067715;28;20024;-58
2021/12/15 09:05:35;;;;;;;31.63;22.77;;;;;;;7.84;100.00;102082.97;5068055;28;20023;-58
2021/12/15 09:08:01;;;;;;;31.98;22.55;;;;;;;7.84;100.00;102082.97;5066281;28;20046;-58
2021/12/15 09:10:30;;;;;;;31.90;22.27;;;;;;;7.86;100.00;102088.19;5048618;28;20024;-58
2021/12/15 09:12:56;;;;;;;31.33;23.33;;;;;;;7.87;100.00;102084.69;5068294;28;20043;-58
2021/12/15 09:15:22;;;;;;;35.65;22.42;;;;;;;7.89;100.00;102082.91;5068268;28;20135;-58
2021/12/15 09:17:47;;;;;;;32.08;23.67;;;;;;;7.89;100.00;102089.03;5067465;28;20814;-58
2021/12/15 09:20:17;;;;;;;27.25;20.88;;;;;;;7.89;100.00;102083.78;5068278;28;20032;-58
2021/12/15 09:22:43;;;;;;;28.70;22.05;;;;;;;7.93;100.00;102090.72;5067297;28;20034;-58
2021/12/15 09:25:10;;;;;;;29.92;22.17;;;;;;;7.95;100.00;102093.31;5065826;28;20403;-58
2021/12/15 09:27:37;;;;;;;29.90;22.35;;;;;;;7.95;100.00;102094.19;5067465;28;20028;-58
2021/12/15 09:30:07;;;;;;;24.88;21.67;;;;;;;7.82;100.00;102076.91;5066808;28;20833;-58
2021/12/15 09:32:33;;;;;;;25.73;20.33;;;;;;;7.96;100.00;102100.28;5064929;28;20902;-58
2021/12/15 09:34:58;;;;;;;29.00;22.90;;;;;;;7.98;100.00;102099.38;5067081;28;20042;-58
2021/12/15 09:37:24;;;;;;;26.95;20.98;;;;;;;7.99;100.00;102098.50;5067653;28;20028;-58
2021/12/15 09:39:49;;;;;;;25.48;20.30;;;;;;;7.99;100.00;102095.88;5065439;28;20089;-58
2021/12/15 09:42:19;;;;;;;30.90;20.13;;;;;;;8.00;100.00;102095.00;5067505;28;20030;-58
2021/12/15 09:44:45;;;;;;;26.67;21.65;;;;;;;7.96;100.00;102095.91;5070979;28;20134;-58
2021/12/15 09:47:24;;;;;;;36.17;20.25;;;;;;;7.81;100.00;102072.53;5073079;28;20027;-58
2021/12/15 10:04:16;;;;;;;29.42;20.70;;;;;;;8.08;100.00;102114.06;5072031;28;20929;-58
2021/12/15 10:11:41;;;;;;;28.52;20.10;;;;;;;8.13;100.00;102117.53;5071960;28;20903;-58
2021/12/15 10:19:46;;;;;;;26.65;18.20;;;;;;;8.19;100.00;102120.06;5071270;28;20043;-58
2021/12/15 10:22:28;;;;;;;29.90;20.90;;;;;;;8.20;100.00;102119.19;5071736;28;20039;-58
2021/12/15 10:25:24;;;;;;;28.38;21.73;;;;;;;8.21;100.00;102120.06;5071756;28;20019;-58
2021/12/15 10:27:53;;;;;;;25.65;19.65;;;;;;;8.26;100.00;102125.22;5072366;28;20032;-58
2021/12/15 10:30:28;;;;;;;31.50;21.33;;;;;;;8.27;100.00;102125.19;5072976;28;20056;-58
2021/12/15 10:32:57;;;;;;;24.63;20.13;;;;;;;8.31;100.00;102123.44;5073324;28;21000;-57
2021/12/15 10:35:29;;;;;;;31.55;19.92;;;;;;;8.32;100.00;102130.38;5071701;28;20082;-57
2021/12/15 10:38:08;;;;;;;25.23;19.73;;;;;;;8.33;100.00;102135.63;5072830;28;20139;-58
2021/12/15 10:41:02;;;;;;;27.10;18.75;;;;;;;8.30;100.00;102129.56;5071927;28;20135;-57
2021/12/15 10:43:34;;;;;;;22.40;18.60;;;;;;;8.19;100.00;102112.19;5063185;28;20150;-57
2021/12/15 10:46:05;;;;;;;33.17;20.02;;;;;;;8.32;100.00;102126.03;5071211;28;20977;-57
2021/12/15 10:48:37;;;;;;;26.30;20.75;;;;;;;8.33;100.00;102125.16;5074257;28;20031;-57
2021/12/15 10:51:47;;;;;;;29.15;18.83;;;;;;;8.36;100.00;102121.63;5073297;28;20540;-58
2021/12/15 10:54:19;;;;;;;26.23;19.50;;;;;;;8.38;100.00;102130.34;5074810;28;20031;-58
2021/12/15 10:57:00;;;;;;;28.85;18.17;;;;;;;8.38;100.00;102119.84;5068096;28;20034;-57
2021/12/15 10:59:28;;;;;;;25.30;19.15;;;;;;;8.07;100.00;102078.34;5068759;28;20093;-57
2021/12/15 11:01:57;;;;;;;31.33;20.02;;;;;;;8.40;100.00;102128.56;5069049;28;20090;-57
2021/12/15 11:04:32;;;;;;;25.25;19.20;;;;;;;8.43;100.00;102123.28;5068321;28;20035;-57
2021/12/15 11:07:11;;;;;;;23.63;19.02;;;;;;;8.43;100.00;102124.13;5068169;28;20027;-57
2021/12/15 11:10:10;;;;;;;27.05;21.83;;;;;;;8.44;100.00;102132.88;5067927;28;20143;-57
2021/12/15 11:12:39;;;;;;;23.50;20.15;;;;;;;8.43;100.00;102123.28;5068262;28;20032;-57
2021/12/15 11:15:06;;;;;;;22.85;18.23;;;;;;;8.46;100.00;102129.34;5067411;28;20028;-58
2021/12/15 11:17:35;;;;;;;27.25;19.75;;;;;;;8.45;100.00;102129.38;5067150;28;20033;-58
2021/12/15 11:20:14;;;;;;;27.30;21.15;;;;;;;8.46;100.00;102133.69;5068637;28;20084;-58
2021/12/15 11:22:41;;;;;;;27.13;20.52;;;;;;;8.47;100.00;102125.84;5068737;28;20027;-58
2021/12/15 11:25:31;;;;;;;28.27;20.58;;;;;;;8.47;100.00;102122.34;5063659;28;20135;-58
2021/12/15 11:28:04;;;;;;;30.67;19.88;;;;;;;8.50;100.00;102127.53;5059407;28;20034;-58
2021/12/15 11:30:45;;;;;;;25.37;19.43;;;;;;;8.50;100.00;102124.91;5062100;28;20070;-58
2021/12/15 11:33:13;;;;;;;25.23;19.92;;;;;;;8.45;100.00;102116.28;5067267;28;20083;-58
2021/12/15 11:35:42;;;;;;;23.05;18.55;;;;;;;8.49;100.00;102120.56;5068484;28;20024;-57
2021/12/15 11:38:13;;;;;;;25.92;19.48;;;;;;;8.48;100.00;102122.31;5068398;28;21058;-58
2021/12/15 11:40:52;;;;;;;25.73;19.55;;;;;;;8.17;100.00;102064.25;5068198;28;20956;-58
2021/12/15 11:43:40;;;;;;;24.00;18.27;;;;;;;8.52;100.00;102115.28;5067312;28;20865;-58
2021/12/15 11:46:22;;;;;;;24.00;18.73;;;;;;;8.51;100.00;102105.69;5068057;28;20084;-58
2021/12/15 11:48:51;;;;;;;29.52;19.20;;;;;;;8.53;100.00;102114.41;5068051;28;20218;-58
2021/12/15 11:51:27;;;;;;;26.98;20.13;;;;;;;8.53;100.00;102114.41;5068539;28;20028;-58
2021/12/15 11:53:53;;;;;;;29.20;20.48;;;;;;;8.53;100.00;102109.16;5068546;28;20038;-58
2021/12/15 11:56:33;;;;;;;27.98;19.70;;;;;;;8.32;100.00;102072.78;5068527;28;20031;-58
2021/12/15 11:59:16;;;;;;;22.33;18.88;;;;;;;8.57;100.00;102109.09;5067949;28;20080;-58
2021/12/15 12:01:54;;;;;;;28.25;21.10;;;;;;;8.62;100.00;102114.25;5067858;28;20031;-58
2021/12/15 12:04:41;;;;;;;26.63;20.73;;;;;;;8.65;100.00;102103.75;5067296;28;20035;-58
2021/12/15 12:07:15;;;;;;;33.92;22.83;;;;;;;8.65;100.00;102107.22;5067291;28;20187;-57
2021/12/15 12:09:44;;;;;;;26.70;18.88;;;;;;;8.65;100.00;102109.00;5068286;28;20031;-57
2021/12/15 12:12:10;;;;;;;23.42;19.85;;;;;;;8.72;100.00;102107.97;5066336;28;20031;-58
2021/12/15 12:14:48;;;;;;;23.33;19.85;;;;;;;8.78;100.00;102102.69;5065855;28;20035;-58
2021/12/15 12:17:17;;;;;;;26.58;19.20;;;;;;;8.80;100.00;102105.25;5066133;28;20085;-57
2021/12/15 12:19:47;;;;;;;27.02;19.65;;;;;;;8.84;100.00;102099.94;5067854;28;20031;-58
2021/12/15 12:22:14;;;;;;;27.20;19.80;;;;;;;8.88;100.00;102112.13;5051373;28;20809;-58
2021/12/15 12:24:43;;;;;;;33.83;20.33;;;;;;;8.90;100.00;102105.09;5067043;28;20080;-57